Aeroporto :
LOGIN :

Iscrizione | Disclaimer

   EN    FR    IT 

 










Sommario :    VFR   VFR Marginale   IFR   IFR Intensivo   IFR Molto Intensivo
Visibilità : 
Base nubi : 
>= 8 km
>= 3000ft
5 / 8 km
1000 / 3000 ft
1500m / 5 km
500 / 1000 ft
800 / 1500m
200 / 500 ft
< 800m
< 200 ft
Simboli :   Temporali  Nebbia  Neve Forte  Precipitazioni Forti  Vento > 20 kt
SIGMETs :   Varie  Temporali  Ghiacco  Turbolenza  Onda orograficha  Ceneri Vulcaniche






- Altitudine del aeroporto : 230 ft
- Codice IATA : VAR


LBWN - Varna

ULTIMO METAR :
  • 212000Z 26006KT CAVOK 01/M04 Q1035 NOSIG

METARs OBSOLETI :
  • 211930Z 28010KT CAVOK 01/M04 Q1035 NOSIG
  • 211900Z 28009KT CAVOK 01/M04 Q1035 NOSIG
  • 211830Z 29008KT CAVOK 01/M04 Q1036 NOSIG
  • 211800Z 27007KT CAVOK 01/M04 Q1036 NOSIG
  • 211730Z 28007KT CAVOK 01/M04 Q1036 NOSIG

TAF COR TAF LBWN
Valido dal 21 a 18 ore il 22 a 18 ore UTC


211740Z 2118/2218 28010KT CAVOK



MetMap, La meteo Aeronautica in un colpo d'occhio ! - Copyright ORBIFLY Dicembre 2007 - Disclaimer

ORBIFLY MET'MAP TEAM :

Programmazione e sviluppo : Alexandra Zaïnal
Concezione : Baudouin d'Aumeries
Aiuto per la programmazione : Marc-Olivier Méhu
Supporto tecnico e logistico : Manuel Goepfert
Aiuto per la traduzione : Arnaldo La Scala

Contatto : metmap@orbifly.com




FONTI E CREDITI :

   NOAA